sensor_id;sensor_type;location;lat;lon;timestamp;pressure;altitude;pressure_sealevel;temperature
34310;BMP280;61664;48.112;11.662;2023-05-21T00:01:23;95140.59;;;19.36
34310;BMP280;61664;48.112;11.662;2023-05-21T00:03:51;95138.22;;;19.32
34310;BMP280;61664;48.112;11.662;2023-05-21T00:06:19;95139.06;;;19.27
34310;BMP280;61664;48.112;11.662;2023-05-21T00:08:46;95143.66;;;19.32
34310;BMP280;61664;48.112;11.662;2023-05-21T00:11:13;95132.00;;;19.24
34310;BMP280;61664;48.112;11.662;2023-05-21T00:13:40;95135.03;;;19.21
34310;BMP280;61664;48.112;11.662;2023-05-21T00:16:07;95133.03;;;19.21
34310;BMP280;61664;48.112;11.662;2023-05-21T00:18:37;95129.09;;;19.22
34310;BMP280;61664;48.112;11.662;2023-05-21T00:21:05;95126.16;;;19.20
34310;BMP280;61664;48.112;11.662;2023-05-21T00:23:32;95109.41;;;19.08
34310;BMP280;61664;48.112;11.662;2023-05-21T00:25:59;95121.91;;;19.12
34310;BMP280;61664;48.112;11.662;2023-05-21T00:28:26;95125.34;;;19.12
34310;BMP280;61664;48.112;11.662;2023-05-21T00:30:53;95111.91;;;19.06
34310;BMP280;61664;48.112;11.662;2023-05-21T00:33:21;95105.78;;;19.06
34310;BMP280;61664;48.112;11.662;2023-05-21T00:35:48;95121.28;;;19.05
34310;BMP280;61664;48.112;11.662;2023-05-21T00:38:15;95105.66;;;18.98
34310;BMP280;61664;48.112;11.662;2023-05-21T00:40:44;95119.63;;;19.02
34310;BMP280;61664;48.112;11.662;2023-05-21T00:43:11;95118.72;;;19.00
34310;BMP280;61664;48.112;11.662;2023-05-21T00:45:41;95119.53;;;18.95
34310;BMP280;61664;48.112;11.662;2023-05-21T00:48:11;95112.75;;;18.88
34310;BMP280;61664;48.112;11.662;2023-05-21T00:50:40;95109.13;;;18.86
34310;BMP280;61664;48.112;11.662;2023-05-21T00:53:07;95114.00;;;18.87
34310;BMP280;61664;48.112;11.662;2023-05-21T00:55:38;95110.38;;;18.85
34310;BMP280;61664;48.112;11.662;2023-05-21T00:58:06;95100.47;;;18.74
34310;BMP280;61664;48.112;11.662;2023-05-21T01:00:35;95108.47;;;18.80
34310;BMP280;61664;48.112;11.662;2023-05-21T01:03:04;95112.25;;;18.77
34310;BMP280;61664;48.112;11.662;2023-05-21T01:05:32;95112.56;;;18.73
34310;BMP280;61664;48.112;11.662;2023-05-21T01:07:59;95102.06;;;18.69
34310;BMP280;61664;48.112;11.662;2023-05-21T01:10:27;95112.88;;;18.69
34310;BMP280;61664;48.112;11.662;2023-05-21T01:12:56;95101.63;;;18.65
34310;BMP280;61664;48.112;11.662;2023-05-21T01:15:24;95100.91;;;18.65
34310;BMP280;61664;48.112;11.662;2023-05-21T01:17:51;95100.19;;;18.64
34310;BMP280;61664;48.112;11.662;2023-05-21T01:20:20;95090.69;;;18.58
34310;BMP280;61664;48.112;11.662;2023-05-21T01:22:55;95103.41;;;18.63
34310;BMP280;61664;48.112;11.662;2023-05-21T01:25:23;95099.75;;;18.60
34310;BMP280;61664;48.112;11.662;2023-05-21T01:27:51;95100.25;;;18.59
34310;BMP280;61664;48.112;11.662;2023-05-21T01:30:19;95106.19;;;18.57
34310;BMP280;61664;48.112;11.662;2023-05-21T01:35:40;95104.53;;;18.54
34310;BMP280;61664;48.112;11.662;2023-05-21T01:38:27;95104.88;;;18.51
34310;BMP280;61664;48.112;11.662;2023-05-21T01:41:00;95103.59;;;18.52
34310;BMP280;61664;48.112;11.662;2023-05-21T01:43:33;95093.81;;;18.49
34310;BMP280;61664;48.112;11.662;2023-05-21T01:46:03;95084.63;;;18.39
34310;BMP280;61664;48.112;11.662;2023-05-21T01:48:31;95084.78;;;18.46
34310;BMP280;61664;48.112;11.662;2023-05-21T01:51:03;95086.19;;;18.47
34310;BMP280;61664;48.112;11.662;2023-05-21T01:53:30;95090.69;;;18.45
34310;BMP280;61664;48.112;11.662;2023-05-21T01:55:57;95086.09;;;18.40
34310;BMP280;61664;48.112;11.662;2023-05-21T01:58:25;95084.97;;;18.35
34310;BMP280;61664;48.112;11.662;2023-05-21T02:00:51;95080.59;;;18.32
34310;BMP280;61664;48.112;11.662;2023-05-21T02:03:19;95081.13;;;18.30
34310;BMP280;61664;48.112;11.662;2023-05-21T02:05:47;95088.50;;;18.30
34310;BMP280;61664;48.112;11.662;2023-05-21T02:08:14;95077.56;;;18.22
34310;BMP280;61664;48.112;11.662;2023-05-21T02:10:41;95082.25;;;18.22
34310;BMP280;61664;48.112;11.662;2023-05-21T02:13:08;95087.84;;;18.24
34310;BMP280;61664;48.112;11.662;2023-05-21T02:15:35;95098.47;;;18.22
34310;BMP280;61664;48.112;11.662;2023-05-21T02:18:02;95086.50;;;18.17
34310;BMP280;61664;48.112;11.662;2023-05-21T02:20:30;95086.78;;;18.14
34310;BMP280;61664;48.112;11.662;2023-05-21T02:22:57;95091.69;;;18.15
34310;BMP280;61664;48.112;11.662;2023-05-21T02:25:23;95081.59;;;18.03
34310;BMP280;61664;48.112;11.662;2023-05-21T02:27:50;95086.66;;;18.06
34310;BMP280;61664;48.112;11.662;2023-05-21T02:30:22;95085.94;;;18.06
34310;BMP280;61664;48.112;11.662;2023-05-21T02:32:49;95087.19;;;18.05
34310;BMP280;61664;48.112;11.662;2023-05-21T02:35:16;95086.03;;;18.00
34310;BMP280;61664;48.112;11.662;2023-05-21T02:37:43;95085.09;;;17.98
34310;BMP280;61664;48.112;11.662;2023-05-21T02:40:11;95089.47;;;18.01
34310;BMP280;61664;48.112;11.662;2023-05-21T02:42:39;95069.78;;;17.87
34310;BMP280;61664;48.112;11.662;2023-05-21T02:45:08;95086.56;;;17.99
34310;BMP280;61664;48.112;11.662;2023-05-21T02:47:35;95083.22;;;17.92
34310;BMP280;61664;48.112;11.662;2023-05-21T02:50:06;95081.53;;;17.89
34310;BMP280;61664;48.112;11.662;2023-05-21T02:52:34;95090.38;;;17.90
34310;BMP280;61664;48.112;11.662;2023-05-21T02:55:01;95097.25;;;17.91
34310;BMP280;61664;48.112;11.662;2023-05-21T02:57:28;95099.00;;;17.88
34310;BMP280;61664;48.112;11.662;2023-05-21T02:59:55;95089.06;;;17.78
34310;BMP280;61664;48.112;11.662;2023-05-21T03:02:22;95090.75;;;17.81
34310;BMP280;61664;48.112;11.662;2023-05-21T03:04:49;95075.66;;;17.72
34310;BMP280;61664;48.112;11.662;2023-05-21T03:07:18;95093.97;;;17.79
34310;BMP280;61664;48.112;11.662;2023-05-21T03:09:45;95082.00;;;17.75
34310;BMP280;61664;48.112;11.662;2023-05-21T03:12:13;95073.63;;;17.59
34310;BMP280;61664;48.112;11.662;2023-05-21T03:14:40;95078.31;;;17.59
34310;BMP280;61664;48.112;11.662;2023-05-21T03:17:09;95067.59;;;17.53
34310;BMP280;61664;48.112;11.662;2023-05-21T03:19:40;95082.50;;;17.60
34310;BMP280;61664;48.112;11.662;2023-05-21T03:22:08;95079.63;;;17.52
34310;BMP280;61664;48.112;11.662;2023-05-21T03:24:37;95082.75;;;17.56
34310;BMP280;61664;48.112;11.662;2023-05-21T03:27:04;95069.84;;;17.49
34310;BMP280;61664;48.112;11.662;2023-05-21T03:29:33;95078.69;;;17.50
34310;BMP280;61664;48.112;11.662;2023-05-21T03:32:00;95069.63;;;17.47
34310;BMP280;61664;48.112;11.662;2023-05-21T03:34:27;95084.16;;;17.44
34310;BMP280;61664;48.112;11.662;2023-05-21T03:36:54;95072.94;;;17.40
34310;BMP280;61664;48.112;11.662;2023-05-21T03:39:21;95077.88;;;17.36
34310;BMP280;61664;48.112;11.662;2023-05-21T03:41:48;95067.38;;;17.33
34310;BMP280;61664;48.112;11.662;2023-05-21T03:44:15;95065.03;;;17.24
34310;BMP280;61664;48.112;11.662;2023-05-21T03:46:42;95064.53;;;17.25
34310;BMP280;61664;48.112;11.662;2023-05-21T03:49:12;95066.19;;;17.28
34310;BMP280;61664;48.112;11.662;2023-05-21T03:51:39;95082.91;;;17.27
34310;BMP280;61664;48.112;11.662;2023-05-21T03:54:06;95079.47;;;17.26
34310;BMP280;61664;48.112;11.662;2023-05-21T03:56:33;95077.72;;;17.29
34310;BMP280;61664;48.112;11.662;2023-05-21T03:59:00;95076.50;;;17.30
34310;BMP280;61664;48.112;11.662;2023-05-21T04:01:27;95078.19;;;17.33
34310;BMP280;61664;48.112;11.662;2023-05-21T04:03:54;95074.00;;;17.32
34310;BMP280;61664;48.112;11.662;2023-05-21T04:06:21;95073.50;;;17.33
34310;BMP280;61664;48.112;11.662;2023-05-21T04:08:49;95073.78;;;17.30
34310;BMP280;61664;48.112;11.662;2023-05-21T04:11:15;95068.63;;;17.32
34310;BMP280;61664;48.112;11.662;2023-05-21T04:13:42;95062.50;;;17.31
34310;BMP280;61664;48.112;11.662;2023-05-21T04:16:09;95070.72;;;17.39
34310;BMP280;61664;48.112;11.662;2023-05-21T04:18:40;95075.38;;;17.38
34310;BMP280;61664;48.112;11.662;2023-05-21T04:21:11;95070.66;;;17.26
34310;BMP280;61664;48.112;11.662;2023-05-21T04:23:38;95075.25;;;17.31
34310;BMP280;61664;48.112;11.662;2023-05-21T04:26:05;95073.72;;;17.35
34310;BMP280;61664;48.112;11.662;2023-05-21T04:28:33;95074.97;;;17.34
34310;BMP280;61664;48.112;11.662;2023-05-21T04:31:01;95065.09;;;17.37
34310;BMP280;61664;48.112;11.662;2023-05-21T04:33:28;95074.16;;;17.39
34310;BMP280;61664;48.112;11.662;2023-05-21T04:35:56;95075.03;;;17.47
34310;BMP280;61664;48.112;11.662;2023-05-21T04:38:23;95076.94;;;17.52
34310;BMP280;61664;48.112;11.662;2023-05-21T04:40:50;95085.44;;;17.56
34310;BMP280;61664;48.112;11.662;2023-05-21T04:43:19;95073.28;;;17.50
34310;BMP280;61664;48.112;11.662;2023-05-21T04:45:52;95091.81;;;17.59
34310;BMP280;61664;48.112;11.662;2023-05-21T04:48:21;95086.84;;;17.63
34310;BMP280;61664;48.112;11.662;2023-05-21T04:50:50;95088.72;;;17.68
34310;BMP280;61664;48.112;11.662;2023-05-21T04:53:17;95096.88;;;17.81
34310;BMP280;61664;48.112;11.662;2023-05-21T04:55:45;95097.84;;;17.84
34310;BMP280;61664;48.112;11.662;2023-05-21T04:58:12;95097.25;;;17.91
34310;BMP280;61664;48.112;11.662;2023-05-21T05:00:40;95086.03;;;18.00
34310;BMP280;61664;48.112;11.662;2023-05-21T05:03:08;95088.13;;;18.07
34310;BMP280;61664;48.112;11.662;2023-05-21T05:05:35;95089.09;;;18.23
34310;BMP280;61664;48.112;11.662;2023-05-21T05:08:02;95078.19;;;18.28
34310;BMP280;61664;48.112;11.662;2023-05-21T05:10:29;95089.97;;;18.44
34310;BMP280;61664;48.112;11.662;2023-05-21T05:12:56;95087.06;;;18.55
34310;BMP280;61664;48.112;11.662;2023-05-21T05:15:23;95093.94;;;18.69
34310;BMP280;61664;48.112;11.662;2023-05-21T05:17:50;95079.97;;;18.79
34310;BMP280;61664;48.112;11.662;2023-05-21T05:20:17;95086.13;;;18.92
34310;BMP280;61664;48.112;11.662;2023-05-21T05:22:44;95087.97;;;18.97
34310;BMP280;61664;48.112;11.662;2023-05-21T05:25:11;95063.75;;;18.92
34310;BMP280;61664;48.112;11.662;2023-05-21T05:27:38;95090.53;;;19.16
34310;BMP280;61664;48.112;11.662;2023-05-21T05:30:05;95085.97;;;19.24
34310;BMP280;61664;48.112;11.662;2023-05-21T05:32:32;95082.59;;;19.31
34310;BMP280;61664;48.112;11.662;2023-05-21T05:34:59;95088.69;;;19.45
34310;BMP280;61664;48.112;11.662;2023-05-21T05:37:28;95096.91;;;19.53
34310;BMP280;61664;48.112;11.662;2023-05-21T05:39:55;95091.78;;;19.62
34310;BMP280;61664;48.112;11.662;2023-05-21T05:42:22;95087.16;;;19.70
34310;BMP280;61664;48.112;11.662;2023-05-21T05:44:49;95087.44;;;19.80
34310;BMP280;61664;48.112;11.662;2023-05-21T05:47:16;95091.13;;;19.90
34310;BMP280;61664;48.112;11.662;2023-05-21T05:49:43;95088.66;;;20.00
34310;BMP280;61664;48.112;11.662;2023-05-21T05:52:10;95087.28;;;20.06
34310;BMP280;61664;48.112;11.662;2023-05-21T05:54:37;95097.31;;;20.19
34310;BMP280;61664;48.112;11.662;2023-05-21T05:57:04;95099.75;;;20.30
34310;BMP280;61664;48.112;11.662;2023-05-21T05:59:31;95095.81;;;20.39
34310;BMP280;61664;48.112;11.662;2023-05-21T06:01:59;95081.50;;;20.38
34310;BMP280;61664;48.112;11.662;2023-05-21T06:04:27;95094.84;;;20.57
34310;BMP280;61664;48.112;11.662;2023-05-21T06:06:59;95085.84;;;20.62
34310;BMP280;61664;48.112;11.662;2023-05-21T06:09:26;95096.44;;;20.81
34310;BMP280;61664;48.112;11.662;2023-05-21T06:11:53;95099.91;;;20.96
34310;BMP280;61664;48.112;11.662;2023-05-21T06:14:20;95095.06;;;21.02
34310;BMP280;61664;48.112;11.662;2023-05-21T06:16:47;95101.81;;;21.17
34310;BMP280;61664;48.112;11.662;2023-05-21T06:19:14;95096.25;;;21.37
34310;BMP280;61664;48.112;11.662;2023-05-21T06:21:41;95099.72;;;21.53
34310;BMP280;61664;48.112;11.662;2023-05-21T06:24:08;95092.31;;;21.69
34310;BMP280;61664;48.112;11.662;2023-05-21T06:26:35;95091.44;;;21.81
34310;BMP280;61664;48.112;11.662;2023-05-21T06:29:02;95099.97;;;22.01
34310;BMP280;61664;48.112;11.662;2023-05-21T06:31:29;95089.63;;;22.14
34310;BMP280;61664;48.112;11.662;2023-05-21T06:33:59;95097.03;;;22.29
34310;BMP280;61664;48.112;11.662;2023-05-21T06:36:26;95100.84;;;22.41
34310;BMP280;61664;48.112;11.662;2023-05-21T06:38:55;95089.19;;;22.48
34310;BMP280;61664;48.112;11.662;2023-05-21T06:41:24;95088.28;;;22.53
34310;BMP280;61664;48.112;11.662;2023-05-21T06:43:51;95095.16;;;22.70
34310;BMP280;61664;48.112;11.662;2023-05-21T06:46:18;95093.28;;;22.80
34310;BMP280;61664;48.112;11.662;2023-05-21T06:48:46;95099.41;;;22.88
34310;BMP280;61664;48.112;11.662;2023-05-21T06:51:12;95107.53;;;23.03
34310;BMP280;61664;48.112;11.662;2023-05-21T06:53:39;95111.69;;;23.04
34310;BMP280;61664;48.112;11.662;2023-05-21T06:56:07;95108.41;;;23.05
34310;BMP280;61664;48.112;11.662;2023-05-21T06:58:34;95109.19;;;22.98
34310;BMP280;61664;48.112;11.662;2023-05-21T07:01:01;95115.75;;;22.95
34310;BMP280;61664;48.112;11.662;2023-05-21T07:03:28;95108.13;;;22.86
34310;BMP280;61664;48.112;11.662;2023-05-21T07:05:56;95123.38;;;22.89
34310;BMP280;61664;48.112;11.662;2023-05-21T07:08:23;95116.13;;;22.92
34310;BMP280;61664;48.112;11.662;2023-05-21T07:10:50;95121.56;;;22.99
34310;BMP280;61664;48.112;11.662;2023-05-21T07:13:17;95119.31;;;23.05
34310;BMP280;61664;48.112;11.662;2023-05-21T07:15:44;95113.50;;;23.09
34310;BMP280;61664;48.112;11.662;2023-05-21T07:18:11;95126.88;;;23.22
34310;BMP280;61664;48.112;11.662;2023-05-21T07:20:39;95127.56;;;23.30
34310;BMP280;61664;48.112;11.662;2023-05-21T07:23:06;95125.34;;;23.36
34310;BMP280;61664;48.112;11.662;2023-05-21T07:25:33;95122.38;;;23.50
34310;BMP280;61664;48.112;11.662;2023-05-21T07:28:00;95112.34;;;23.52
34310;BMP280;61664;48.112;11.662;2023-05-21T07:30:27;95121.00;;;23.66
34310;BMP280;61664;48.112;11.662;2023-05-21T07:32:54;95115.31;;;23.71
34310;BMP280;61664;48.112;11.662;2023-05-21T07:35:21;95118.91;;;23.74
34310;BMP280;61664;48.112;11.662;2023-05-21T07:37:48;95123.22;;;23.84
34310;BMP280;61664;48.112;11.662;2023-05-21T07:40:15;95118.66;;;23.87
34310;BMP280;61664;48.112;11.662;2023-05-21T07:42:42;95116.09;;;23.89
34310;BMP280;61664;48.112;11.662;2023-05-21T07:45:09;95111.41;;;23.82
34310;BMP280;61664;48.112;11.662;2023-05-21T07:47:36;95109.25;;;23.80
34310;BMP280;61664;48.112;11.662;2023-05-21T07:50:04;95107.97;;;23.81
34310;BMP280;61664;48.112;11.662;2023-05-21T07:52:31;95103.72;;;23.88
34310;BMP280;61664;48.112;11.662;2023-05-21T07:55:00;95117.22;;;24.03
34310;BMP280;61664;48.112;11.662;2023-05-21T07:57:29;95117.81;;;24.02
34310;BMP280;61664;48.112;11.662;2023-05-21T07:59:56;95119.81;;;24.01
34310;BMP280;61664;48.112;11.662;2023-05-21T08:02:24;95128.69;;;24.09
34310;BMP280;61664;48.112;11.662;2023-05-21T08:04:51;95115.66;;;24.17
34310;BMP280;61664;48.112;11.662;2023-05-21T08:07:18;95111.91;;;24.30
34310;BMP280;61664;48.112;11.662;2023-05-21T08:09:47;95118.25;;;24.50
34310;BMP280;61664;48.112;11.662;2023-05-21T08:12:14;95118.50;;;24.61
34310;BMP280;61664;48.112;11.662;2023-05-21T08:14:41;95123.06;;;24.76
34310;BMP280;61664;48.112;11.662;2023-05-21T08:17:09;95116.81;;;24.83
34310;BMP280;61664;48.112;11.662;2023-05-21T08:19:38;95122.63;;;24.97
34310;BMP280;61664;48.112;11.662;2023-05-21T08:22:05;95133.25;;;25.10
34310;BMP280;61664;48.112;11.662;2023-05-21T08:24:33;95119.09;;;25.04
34310;BMP280;61664;48.112;11.662;2023-05-21T08:27:00;95127.19;;;25.11
34310;BMP280;61664;48.112;11.662;2023-05-21T08:29:27;95135.06;;;25.07
34310;BMP280;61664;48.112;11.662;2023-05-21T08:31:54;95133.63;;;25.06
34310;BMP280;61664;48.112;11.662;2023-05-21T08:34:21;95139.25;;;25.08
34310;BMP280;61664;48.112;11.662;2023-05-21T08:36:49;95120.63;;;24.97
34310;BMP280;61664;48.112;11.662;2023-05-21T08:39:16;95137.88;;;25.17
34310;BMP280;61664;48.112;11.662;2023-05-21T08:41:43;95134.31;;;25.24
34310;BMP280;61664;48.112;11.662;2023-05-21T08:44:20;95139.66;;;25.32
34310;BMP280;61664;48.112;11.662;2023-05-21T08:46:50;95130.22;;;25.42
34310;BMP280;61664;48.112;11.662;2023-05-21T08:49:22;95137.38;;;25.65
34310;BMP280;61664;48.112;11.662;2023-05-21T08:51:54;95134.16;;;25.85
34310;BMP280;61664;48.112;11.662;2023-05-21T08:54:21;95128.72;;;26.05
34310;BMP280;61664;48.112;11.662;2023-05-21T08:56:49;95133.50;;;26.33
34310;BMP280;61664;48.112;11.662;2023-05-21T08:59:18;95133.81;;;26.56
34310;BMP280;61664;48.112;11.662;2023-05-21T09:01:47;95137.69;;;26.82
34310;BMP280;61664;48.112;11.662;2023-05-21T09:04:16;95130.31;;;26.94
34310;BMP280;61664;48.112;11.662;2023-05-21T09:06:47;95134.75;;;27.18
34310;BMP280;61664;48.112;11.662;2023-05-21T09:09:31;95127.16;;;27.38
34310;BMP280;61664;48.112;11.662;2023-05-21T09:11:59;95123.19;;;27.60
34310;BMP280;61664;48.112;11.662;2023-05-21T09:14:27;95131.69;;;27.86
34310;BMP280;61664;48.112;11.662;2023-05-21T09:16:54;95139.47;;;28.20
34310;BMP280;61664;48.112;11.662;2023-05-21T09:19:21;95133.94;;;28.74
34310;BMP280;61664;48.112;11.662;2023-05-21T09:21:51;95129.63;;;29.39
34310;BMP280;61664;48.112;11.662;2023-05-21T09:26:48;95131.75;;;30.86
34310;BMP280;61664;48.112;11.662;2023-05-21T09:29:15;95134.47;;;31.25
34310;BMP280;61664;48.112;11.662;2023-05-21T09:31:43;95137.25;;;31.66
34310;BMP280;61664;48.112;11.662;2023-05-21T09:34:11;95130.94;;;32.65
34310;BMP280;61664;48.112;11.662;2023-05-21T09:36:39;95116.25;;;34.25
34310;BMP280;61664;48.112;11.662;2023-05-21T09:39:06;95132.09;;;35.56
34310;BMP280;61664;48.112;11.662;2023-05-21T09:41:34;95130.22;;;36.51
34310;BMP280;61664;48.112;11.662;2023-05-21T09:44:03;95118.63;;;37.36
34310;BMP280;61664;48.112;11.662;2023-05-21T09:46:40;95133.28;;;37.92
34310;BMP280;61664;48.112;11.662;2023-05-21T09:49:22;95124.75;;;38.18
34310;BMP280;61664;48.112;11.662;2023-05-21T09:51:57;95130.91;;;38.78
34310;BMP280;61664;48.112;11.662;2023-05-21T09:54:32;95128.00;;;38.72
34310;BMP280;61664;48.112;11.662;2023-05-21T09:57:00;95130.28;;;38.14
34310;BMP280;61664;48.112;11.662;2023-05-21T09:59:40;95132.84;;;37.74
34310;BMP280;61664;48.112;11.662;2023-05-21T10:02:21;95136.22;;;37.43
34310;BMP280;61664;48.112;11.662;2023-05-21T10:04:50;95132.38;;;37.02
34310;BMP280;61664;48.112;11.662;2023-05-21T10:07:20;95137.44;;;36.60
34310;BMP280;61664;48.112;11.662;2023-05-21T10:09:56;95126.31;;;36.60
34310;BMP280;61664;48.112;11.662;2023-05-21T10:12:24;95136.44;;;36.99
34310;BMP280;61664;48.112;11.662;2023-05-21T10:15:03;95131.25;;;37.39
34310;BMP280;61664;48.112;11.662;2023-05-21T10:17:30;95122.63;;;37.57
34310;BMP280;61664;48.112;11.662;2023-05-21T10:19:58;95125.78;;;37.43
34310;BMP280;61664;48.112;11.662;2023-05-21T10:22:26;95119.88;;;37.31
34310;BMP280;61664;48.112;11.662;2023-05-21T10:24:55;95126.38;;;37.12
34310;BMP280;61664;48.112;11.662;2023-05-21T10:27:23;95127.88;;;36.65
34310;BMP280;61664;48.112;11.662;2023-05-21T10:29:53;95123.50;;;36.13
34310;BMP280;61664;48.112;11.662;2023-05-21T10:32:25;95126.22;;;35.89
34310;BMP280;61664;48.112;11.662;2023-05-21T10:34:53;95125.84;;;35.99
34310;BMP280;61664;48.112;11.662;2023-05-21T10:37:23;95123.50;;;35.91
34310;BMP280;61664;48.112;11.662;2023-05-21T10:39:53;95122.28;;;35.75
34310;BMP280;61664;48.112;11.662;2023-05-21T10:54:17;95119.75;;;35.20
34310;BMP280;61664;48.112;11.662;2023-05-21T10:57:12;95106.88;;;35.72
34310;BMP280;61664;48.112;11.662;2023-05-21T10:59:45;95112.94;;;36.55
34310;BMP280;61664;48.112;11.662;2023-05-21T11:02:14;95111.69;;;37.37
34310;BMP280;61664;48.112;11.662;2023-05-21T11:04:46;95098.63;;;37.71
34310;BMP280;61664;48.112;11.662;2023-05-21T11:07:22;95088.28;;;38.39
34310;BMP280;61664;48.112;11.662;2023-05-21T11:09:50;95092.72;;;39.28
34310;BMP280;61664;48.112;11.662;2023-05-21T11:12:17;95104.19;;;40.42
34310;BMP280;61664;48.112;11.662;2023-05-21T11:14:56;95104.25;;;41.12
34310;BMP280;61664;48.112;11.662;2023-05-21T11:17:39;95096.88;;;41.51
34310;BMP280;61664;48.112;11.662;2023-05-21T11:20:11;95107.59;;;41.79
34310;BMP280;61664;48.112;11.662;2023-05-21T11:22:40;95101.94;;;41.71
34310;BMP280;61664;48.112;11.662;2023-05-21T11:25:07;95103.13;;;41.44
34310;BMP280;61664;48.112;11.662;2023-05-21T11:27:41;95112.25;;;40.72
34310;BMP280;61664;48.112;11.662;2023-05-21T11:30:17;95107.09;;;39.96
34310;BMP280;61664;48.112;11.662;2023-05-21T11:38:16;95090.63;;;37.88
34310;BMP280;61664;48.112;11.662;2023-05-21T11:40:52;95098.03;;;37.19
34310;BMP280;61664;48.112;11.662;2023-05-21T11:43:22;95094.19;;;36.55
34310;BMP280;61664;48.112;11.662;2023-05-21T11:45:51;95096.44;;;35.92
34310;BMP280;61664;48.112;11.662;2023-05-21T11:48:23;95093.09;;;35.32
34310;BMP280;61664;48.112;11.662;2023-05-21T11:50:53;95097.88;;;34.90
34310;BMP280;61664;48.112;11.662;2023-05-21T11:53:20;95099.09;;;34.48
34310;BMP280;61664;48.112;11.662;2023-05-21T11:55:47;95104.84;;;34.17
34310;BMP280;61664;48.112;11.662;2023-05-21T11:58:17;95101.03;;;34.08
34310;BMP280;61664;48.112;11.662;2023-05-21T12:00:49;95095.41;;;33.88
34310;BMP280;61664;48.112;11.662;2023-05-21T12:03:16;95095.16;;;33.65
34310;BMP280;61664;48.112;11.662;2023-05-21T12:05:47;95085.16;;;33.58
34310;BMP280;61664;48.112;11.662;2023-05-21T12:08:22;95083.09;;;33.58
34310;BMP280;61664;48.112;11.662;2023-05-21T12:10:58;95098.06;;;33.69
34310;BMP280;61664;48.112;11.662;2023-05-21T12:13:27;95089.44;;;33.61
34310;BMP280;61664;48.112;11.662;2023-05-21T12:15:54;95088.47;;;33.54
34310;BMP280;61664;48.112;11.662;2023-05-21T12:18:21;95073.38;;;33.57
34310;BMP280;61664;48.112;11.662;2023-05-21T12:20:50;95090.19;;;34.14
34310;BMP280;61664;48.112;11.662;2023-05-21T12:23:28;95093.31;;;34.99
34310;BMP280;61664;48.112;11.662;2023-05-21T12:25:57;95080.69;;;36.00
34310;BMP280;61664;48.112;11.662;2023-05-21T12:28:25;95081.69;;;36.56
34310;BMP280;61664;48.112;11.662;2023-05-21T12:30:51;95068.97;;;36.49
34310;BMP280;61664;48.112;11.662;2023-05-21T12:33:19;95076.13;;;36.09
34310;BMP280;61664;48.112;11.662;2023-05-21T12:35:49;95081.56;;;35.61
34310;BMP280;61664;48.112;11.662;2023-05-21T12:38:17;95075.75;;;35.12
34310;BMP280;61664;48.112;11.662;2023-05-21T12:40:44;95094.63;;;34.96
34310;BMP280;61664;48.112;11.662;2023-05-21T12:43:12;95083.94;;;34.88
34310;BMP280;61664;48.112;11.662;2023-05-21T12:45:39;95071.81;;;34.80
34310;BMP280;61664;48.112;11.662;2023-05-21T12:48:06;95075.31;;;34.80
34310;BMP280;61664;48.112;11.662;2023-05-21T12:50:37;95079.78;;;34.70
34310;BMP280;61664;48.112;11.662;2023-05-21T12:53:08;95074.47;;;34.38
34310;BMP280;61664;48.112;11.662;2023-05-21T12:55:36;95086.31;;;34.21
34310;BMP280;61664;48.112;11.662;2023-05-21T12:58:04;95076.88;;;34.11
34310;BMP280;61664;48.112;11.662;2023-05-21T13:00:35;95071.25;;;33.91
34310;BMP280;61664;48.112;11.662;2023-05-21T13:03:02;95078.06;;;33.70
34310;BMP280;61664;48.112;11.662;2023-05-21T13:05:32;95074.22;;;33.44
34310;BMP280;61664;48.112;11.662;2023-05-21T13:07:59;95087.63;;;33.34
34310;BMP280;61664;48.112;11.662;2023-05-21T13:10:26;95079.69;;;33.26
34310;BMP280;61664;48.112;11.662;2023-05-21T13:12:53;95073.94;;;33.38
34310;BMP280;61664;48.112;11.662;2023-05-21T13:15:19;95067.03;;;33.55
34310;BMP280;61664;48.112;11.662;2023-05-21T13:17:46;95063.47;;;33.70
34310;BMP280;61664;48.112;11.662;2023-05-21T13:20:18;95070.53;;;33.73
34310;BMP280;61664;48.112;11.662;2023-05-21T13:22:50;95064.66;;;33.82
34310;BMP280;61664;48.112;11.662;2023-05-21T13:25:20;95069.19;;;34.09
34310;BMP280;61664;48.112;11.662;2023-05-21T13:27:50;95054.53;;;34.24
34310;BMP280;61664;48.112;11.662;2023-05-21T13:30:18;95067.28;;;34.31
34310;BMP280;61664;48.112;11.662;2023-05-21T13:32:46;95064.19;;;34.23
34310;BMP280;61664;48.112;11.662;2023-05-21T13:35:13;95065.47;;;34.20
34310;BMP280;61664;48.112;11.662;2023-05-21T13:37:42;95070.06;;;34.31
34310;BMP280;61664;48.112;11.662;2023-05-21T13:40:11;95067.66;;;34.41
34310;BMP280;61664;48.112;11.662;2023-05-21T13:42:47;95066.31;;;34.62
34310;BMP280;61664;48.112;11.662;2023-05-21T13:45:19;95064.56;;;34.90
34310;BMP280;61664;48.112;11.662;2023-05-21T13:47:47;95065.34;;;34.93
34310;BMP280;61664;48.112;11.662;2023-05-21T13:50:15;95074.38;;;35.13
34310;BMP280;61664;48.112;11.662;2023-05-21T13:52:42;95075.44;;;35.65
34310;BMP280;61664;48.112;11.662;2023-05-21T13:55:09;95066.59;;;36.16
34310;BMP280;61664;48.112;11.662;2023-05-21T13:57:36;95063.28;;;36.71
34310;BMP280;61664;48.112;11.662;2023-05-21T14:00:07;95053.50;;;36.94
34310;BMP280;61664;48.112;11.662;2023-05-21T14:02:41;95062.41;;;36.90
34310;BMP280;61664;48.112;11.662;2023-05-21T14:05:09;95053.59;;;36.72
34310;BMP280;61664;48.112;11.662;2023-05-21T14:07:37;95063.03;;;36.61
34310;BMP280;61664;48.112;11.662;2023-05-21T14:10:06;95048.47;;;36.39
34310;BMP280;61664;48.112;11.662;2023-05-21T14:12:33;95050.75;;;36.44
34310;BMP280;61664;48.112;11.662;2023-05-21T14:15:00;95054.38;;;36.75
34310;BMP280;61664;48.112;11.662;2023-05-21T14:17:27;95045.25;;;37.53
34310;BMP280;61664;48.112;11.662;2023-05-21T14:19:54;95043.00;;;38.79
34310;BMP280;61664;48.112;11.662;2023-05-21T14:22:21;95055.69;;;40.22
34310;BMP280;61664;48.112;11.662;2023-05-21T14:24:48;95056.94;;;41.53
34310;BMP280;61664;48.112;11.662;2023-05-21T14:27:15;95050.31;;;42.32